sensor_id;sensor_type;location;lat;lon;timestamp;pressure;altitude;pressure_sealevel;temperature;humidity
24422;BME280;12600;53.326;-6.298;2023-06-14T00:00:20;101290.16;;;22.75;49.63
24422;BME280;12600;53.326;-6.298;2023-06-14T00:03:10;101292.53;;;22.73;49.98
24422;BME280;12600;53.326;-6.298;2023-06-14T00:06:00;101295.63;;;22.68;50.25
24422;BME280;12600;53.326;-6.298;2023-06-14T00:08:49;101302.34;;;22.64;50.45
24422;BME280;12600;53.326;-6.298;2023-06-14T00:11:39;101297.47;;;22.57;50.71
24422;BME280;12600;53.326;-6.298;2023-06-14T00:14:30;101301.72;;;22.47;51.13
24422;BME280;12600;53.326;-6.298;2023-06-14T00:17:19;101307.09;;;22.37;51.51
24422;BME280;12600;53.326;-6.298;2023-06-14T00:20:10;101303.03;;;22.30;51.89
24422;BME280;12600;53.326;-6.298;2023-06-14T00:23:00;101291.34;;;22.21;52.16
24422;BME280;12600;53.326;-6.298;2023-06-14T00:25:50;101300.13;;;22.23;52.43
24422;BME280;12600;53.326;-6.298;2023-06-14T00:28:39;101301.91;;;22.12;52.72
24422;BME280;12600;53.326;-6.298;2023-06-14T00:31:30;101310.72;;;22.14;52.94
24422;BME280;12600;53.326;-6.298;2023-06-14T00:34:20;101311.06;;;22.13;53.26
24422;BME280;12600;53.326;-6.298;2023-06-14T00:37:09;101303.09;;;22.11;53.30
24422;BME280;12600;53.326;-6.298;2023-06-14T00:39:58;101308.28;;;22.13;53.58
24422;BME280;12600;53.326;-6.298;2023-06-14T00:42:48;101297.16;;;22.13;53.58
24422;BME280;12600;53.326;-6.298;2023-06-14T00:45:38;101307.06;;;22.10;53.76
24422;BME280;12600;53.326;-6.298;2023-06-14T00:48:29;101310.22;;;22.09;54.00
24422;BME280;12600;53.326;-6.298;2023-06-14T00:51:20;101296.19;;;22.05;53.84
24422;BME280;12600;53.326;-6.298;2023-06-14T00:54:10;101307.44;;;22.09;54.29
24422;BME280;12600;53.326;-6.298;2023-06-14T00:56:59;101299.44;;;22.07;54.33
24422;BME280;12600;53.326;-6.298;2023-06-14T00:59:49;101306.09;;;22.02;54.59
24422;BME280;12600;53.326;-6.298;2023-06-14T01:02:39;101308.84;;;21.99;55.20
24422;BME280;12600;53.326;-6.298;2023-06-14T01:05:31;101301.97;;;21.93;55.41
24422;BME280;12600;53.326;-6.298;2023-06-14T01:08:31;101289.53;;;21.87;55.98
24422;BME280;12600;53.326;-6.298;2023-06-14T01:11:32;101306.66;;;21.89;55.87
24422;BME280;12600;53.326;-6.298;2023-06-14T01:14:22;101302.25;;;21.88;55.92
24422;BME280;12600;53.326;-6.298;2023-06-14T01:17:13;101309.81;;;21.87;56.38
24422;BME280;12600;53.326;-6.298;2023-06-14T01:20:06;101291.69;;;21.74;56.67
24422;BME280;12600;53.326;-6.298;2023-06-14T01:23:00;101302.88;;;21.77;57.32
24422;BME280;12600;53.326;-6.298;2023-06-14T01:25:51;101305.94;;;21.72;57.14
24422;BME280;12600;53.326;-6.298;2023-06-14T01:28:41;101307.50;;;21.70;57.60
24422;BME280;12600;53.326;-6.298;2023-06-14T01:31:36;101317.84;;;21.69;57.93
24422;BME280;12600;53.326;-6.298;2023-06-14T01:34:29;101314.63;;;21.67;57.94
24422;BME280;12600;53.326;-6.298;2023-06-14T01:37:20;101315.00;;;21.66;58.37
24422;BME280;12600;53.326;-6.298;2023-06-14T01:40:13;101316.88;;;21.62;58.47
24422;BME280;12600;53.326;-6.298;2023-06-14T01:43:04;101314.06;;;21.58;58.42
24422;BME280;12600;53.326;-6.298;2023-06-14T01:45:55;101316.38;;;21.56;58.67
24422;BME280;12600;53.326;-6.298;2023-06-14T01:48:48;101310.31;;;21.50;58.81
24422;BME280;12600;53.326;-6.298;2023-06-14T01:51:37;101313.81;;;21.47;59.24
24422;BME280;12600;53.326;-6.298;2023-06-14T01:54:27;101315.00;;;21.46;59.53
24422;BME280;12600;53.326;-6.298;2023-06-14T01:57:19;101309.00;;;21.44;59.95
24422;BME280;12600;53.326;-6.298;2023-06-14T02:00:11;101308.25;;;21.47;59.73
24422;BME280;12600;53.326;-6.298;2023-06-14T02:03:01;101308.69;;;21.49;59.93
24422;BME280;12600;53.326;-6.298;2023-06-14T02:05:52;101302.66;;;21.44;60.25
24422;BME280;12600;53.326;-6.298;2023-06-14T02:08:42;101311.13;;;21.51;60.32
24422;BME280;12600;53.326;-6.298;2023-06-14T02:11:31;101311.28;;;21.58;60.17
24422;BME280;12600;53.326;-6.298;2023-06-14T02:14:24;101309.72;;;21.61;60.27
24422;BME280;12600;53.326;-6.298;2023-06-14T02:17:15;101316.94;;;21.65;60.14
24422;BME280;12600;53.326;-6.298;2023-06-14T02:20:07;101327.41;;;21.72;59.74
24422;BME280;12600;53.326;-6.298;2023-06-14T02:22:57;101311.88;;;21.71;59.75
24422;BME280;12600;53.326;-6.298;2023-06-14T02:25:47;101325.13;;;21.77;59.97
24422;BME280;12600;53.326;-6.298;2023-06-14T02:28:36;101316.78;;;21.77;59.83
24422;BME280;12600;53.326;-6.298;2023-06-14T02:31:30;101320.31;;;21.74;60.06
24422;BME280;12600;53.326;-6.298;2023-06-14T02:34:19;101322.66;;;21.72;60.06
24422;BME280;12600;53.326;-6.298;2023-06-14T02:37:09;101320.19;;;21.67;59.95
24422;BME280;12600;53.326;-6.298;2023-06-14T02:40:01;101320.91;;;21.64;60.03
24422;BME280;12600;53.326;-6.298;2023-06-14T02:42:51;101309.63;;;21.57;60.13
24422;BME280;12600;53.326;-6.298;2023-06-14T02:45:41;101322.31;;;21.55;60.27
24422;BME280;12600;53.326;-6.298;2023-06-14T02:48:31;101319.81;;;21.49;60.16
24422;BME280;12600;53.326;-6.298;2023-06-14T02:51:21;101324.94;;;21.47;60.26
24422;BME280;12600;53.326;-6.298;2023-06-14T02:54:11;101323.63;;;21.41;60.17
24422;BME280;12600;53.326;-6.298;2023-06-14T02:57:00;101327.56;;;21.40;60.35
24422;BME280;12600;53.326;-6.298;2023-06-14T02:59:49;101333.88;;;21.37;60.41
24422;BME280;12600;53.326;-6.298;2023-06-14T03:02:39;101333.81;;;21.34;60.65
24422;BME280;12600;53.326;-6.298;2023-06-14T03:05:32;101340.53;;;21.33;60.69
24422;BME280;12600;53.326;-6.298;2023-06-14T03:08:22;101326.47;;;21.26;60.63
24422;BME280;12600;53.326;-6.298;2023-06-14T03:11:16;101334.53;;;21.31;60.74
24422;BME280;12600;53.326;-6.298;2023-06-14T03:14:09;101332.56;;;21.31;60.74
24422;BME280;12600;53.326;-6.298;2023-06-14T03:16:59;101344.94;;;21.34;60.55
24422;BME280;12600;53.326;-6.298;2023-06-14T03:19:50;101335.88;;;21.37;60.28
24422;BME280;12600;53.326;-6.298;2023-06-14T03:22:41;101338.28;;;21.38;60.24
24422;BME280;12600;53.326;-6.298;2023-06-14T03:25:35;101342.75;;;21.43;60.01
24422;BME280;12600;53.326;-6.298;2023-06-14T03:28:26;101342.81;;;21.46;60.08
24422;BME280;12600;53.326;-6.298;2023-06-14T03:31:17;101339.28;;;21.49;59.69
24422;BME280;12600;53.326;-6.298;2023-06-14T03:34:08;101334.97;;;21.52;58.79
24422;BME280;12600;53.326;-6.298;2023-06-14T03:36:59;101340.53;;;21.52;57.96
24422;BME280;12600;53.326;-6.298;2023-06-14T03:39:50;101339.38;;;21.53;57.22
24422;BME280;12600;53.326;-6.298;2023-06-14T03:42:43;101328.63;;;21.52;56.46
24422;BME280;12600;53.326;-6.298;2023-06-14T03:45:33;101335.13;;;21.59;55.50
24422;BME280;12600;53.326;-6.298;2023-06-14T03:48:22;101342.72;;;21.62;55.17
24422;BME280;12600;53.326;-6.298;2023-06-14T03:51:13;101344.41;;;21.67;55.21
24422;BME280;12600;53.326;-6.298;2023-06-14T03:54:04;101342.44;;;21.67;54.63
24422;BME280;12600;53.326;-6.298;2023-06-14T03:57:15;101344.03;;;21.68;53.77
24422;BME280;12600;53.326;-6.298;2023-06-14T04:00:07;101356.41;;;21.71;52.54
24422;BME280;12600;53.326;-6.298;2023-06-14T04:03:01;101353.25;;;21.72;51.88
24422;BME280;12600;53.326;-6.298;2023-06-14T04:05:51;101356.81;;;21.73;51.52
24422;BME280;12600;53.326;-6.298;2023-06-14T04:08:45;101361.59;;;21.72;50.38
24422;BME280;12600;53.326;-6.298;2023-06-14T04:11:34;101354.13;;;21.76;50.22
24422;BME280;12600;53.326;-6.298;2023-06-14T04:14:25;101358.50;;;21.77;50.39
24422;BME280;12600;53.326;-6.298;2023-06-14T04:17:14;101356.03;;;21.72;48.94
24422;BME280;12600;53.326;-6.298;2023-06-14T04:20:07;101343.53;;;21.63;48.42
24422;BME280;12600;53.326;-6.298;2023-06-14T04:23:11;101356.41;;;21.71;47.89
24422;BME280;12600;53.326;-6.298;2023-06-14T04:26:01;101366.28;;;21.68;48.78
24422;BME280;12600;53.326;-6.298;2023-06-14T04:28:51;101353.41;;;21.60;49.65
24422;BME280;12600;53.326;-6.298;2023-06-14T04:31:43;101352.84;;;21.51;50.11
24422;BME280;12600;53.326;-6.298;2023-06-14T04:34:34;101355.97;;;21.49;50.01
24422;BME280;12600;53.326;-6.298;2023-06-14T04:37:25;101362.69;;;21.48;50.15
24422;BME280;12600;53.326;-6.298;2023-06-14T04:40:16;101364.63;;;21.44;50.04
24422;BME280;12600;53.326;-6.298;2023-06-14T04:43:05;101360.22;;;21.43;49.73
24422;BME280;12600;53.326;-6.298;2023-06-14T04:45:55;101365.00;;;21.43;49.76
24422;BME280;12600;53.326;-6.298;2023-06-14T04:48:48;101371.25;;;21.40;49.29
24422;BME280;12600;53.326;-6.298;2023-06-14T04:51:48;101369.22;;;21.37;49.08
24422;BME280;12600;53.326;-6.298;2023-06-14T04:54:39;101370.75;;;21.34;49.20
24422;BME280;12600;53.326;-6.298;2023-06-14T04:57:41;101366.28;;;21.30;49.42
24422;BME280;12600;53.326;-6.298;2023-06-14T05:00:42;101371.84;;;21.30;49.58
24422;BME280;12600;53.326;-6.298;2023-06-14T05:03:32;101372.56;;;21.27;49.87
24422;BME280;12600;53.326;-6.298;2023-06-14T05:06:24;101375.34;;;21.27;49.46
24422;BME280;12600;53.326;-6.298;2023-06-14T05:09:14;101378.94;;;21.27;49.44
24422;BME280;12600;53.326;-6.298;2023-06-14T05:12:06;101370.13;;;21.25;49.89
24422;BME280;12600;53.326;-6.298;2023-06-14T05:14:57;101373.25;;;21.23;49.60
24422;BME280;12600;53.326;-6.298;2023-06-14T05:17:48;101373.72;;;21.26;49.64
24422;BME280;12600;53.326;-6.298;2023-06-14T05:20:42;101362.78;;;21.17;49.89
24422;BME280;12600;53.326;-6.298;2023-06-14T05:23:36;101380.91;;;21.27;49.76
24422;BME280;12600;53.326;-6.298;2023-06-14T05:26:31;101362.50;;;21.22;48.95
24422;BME280;12600;53.326;-6.298;2023-06-14T05:29:21;101375.06;;;21.32;49.55
24422;BME280;12600;53.326;-6.298;2023-06-14T05:32:14;101385.47;;;21.35;48.85
24422;BME280;12600;53.326;-6.298;2023-06-14T05:35:07;101371.56;;;21.35;48.29
24422;BME280;12600;53.326;-6.298;2023-06-14T05:37:56;101382.00;;;21.41;47.63
24422;BME280;12600;53.326;-6.298;2023-06-14T05:40:47;101381.66;;;21.43;46.75
24422;BME280;12600;53.326;-6.298;2023-06-14T05:43:36;101381.34;;;21.48;47.13
24422;BME280;12600;53.326;-6.298;2023-06-14T05:46:26;101384.28;;;21.55;46.58
24422;BME280;12600;53.326;-6.298;2023-06-14T05:49:16;101378.44;;;21.60;46.17
24422;BME280;12600;53.326;-6.298;2023-06-14T05:52:10;101390.88;;;21.66;45.91
24422;BME280;12600;53.326;-6.298;2023-06-14T05:55:02;101395.84;;;21.76;45.96
24422;BME280;12600;53.326;-6.298;2023-06-14T05:57:55;101401.94;;;21.82;45.08
24422;BME280;12600;53.326;-6.298;2023-06-14T06:00:45;101410.03;;;21.91;45.26
24422;BME280;12600;53.326;-6.298;2023-06-14T06:03:34;101392.19;;;21.92;44.60
24422;BME280;12600;53.326;-6.298;2023-06-14T06:06:24;101406.03;;;22.08;44.03
24422;BME280;12600;53.326;-6.298;2023-06-14T06:09:14;101408.47;;;22.13;43.47
24422;BME280;12600;53.326;-6.298;2023-06-14T06:12:07;101399.78;;;22.14;42.88
24422;BME280;12600;53.326;-6.298;2023-06-14T06:14:58;101386.53;;;22.08;41.76
24422;BME280;12600;53.326;-6.298;2023-06-14T06:17:47;101408.81;;;22.30;42.05
24422;BME280;12600;53.326;-6.298;2023-06-14T06:20:43;101416.94;;;22.39;42.07
24422;BME280;12600;53.326;-6.298;2023-06-14T06:23:34;101418.22;;;22.45;41.89
24422;BME280;12600;53.326;-6.298;2023-06-14T06:26:23;101419.94;;;22.53;42.05
24422;BME280;12600;53.326;-6.298;2023-06-14T06:29:14;101426.38;;;22.57;42.85
24422;BME280;12600;53.326;-6.298;2023-06-14T06:32:07;101428.38;;;22.57;44.03
24422;BME280;12600;53.326;-6.298;2023-06-14T06:34:56;101430.91;;;22.66;44.07
24422;BME280;12600;53.326;-6.298;2023-06-14T06:37:47;101437.31;;;22.70;44.51
24422;BME280;12600;53.326;-6.298;2023-06-14T06:40:37;101428.97;;;22.70;44.40
24422;BME280;12600;53.326;-6.298;2023-06-14T06:43:26;101428.91;;;22.66;44.15
24422;BME280;12600;53.326;-6.298;2023-06-14T06:46:18;101431.81;;;22.73;44.29
24422;BME280;12600;53.326;-6.298;2023-06-14T06:49:09;101427.81;;;22.71;44.25
24422;BME280;12600;53.326;-6.298;2023-06-14T06:52:01;101430.22;;;22.72;43.73
24422;BME280;12600;53.326;-6.298;2023-06-14T06:54:50;101437.94;;;22.82;43.87
24422;BME280;12600;53.326;-6.298;2023-06-14T06:57:42;101446.72;;;22.84;43.26
24422;BME280;12600;53.326;-6.298;2023-06-14T07:00:32;101438.88;;;22.90;43.41
24422;BME280;12600;53.326;-6.298;2023-06-14T07:03:21;101438.13;;;22.93;43.22
24422;BME280;12600;53.326;-6.298;2023-06-14T07:06:12;101454.94;;;22.97;43.00
24422;BME280;12600;53.326;-6.298;2023-06-14T07:09:02;101450.56;;;22.99;42.56
24422;BME280;12600;53.326;-6.298;2023-06-14T07:11:56;101452.97;;;23.01;42.17
24422;BME280;12600;53.326;-6.298;2023-06-14T07:14:45;101453.84;;;23.05;41.73
24422;BME280;12600;53.326;-6.298;2023-06-14T07:17:35;101439.13;;;23.04;41.41
24422;BME280;12600;53.326;-6.298;2023-06-14T07:20:25;101453.63;;;23.17;41.20
24422;BME280;12600;53.326;-6.298;2023-06-14T07:23:15;101456.53;;;23.24;40.86
24422;BME280;12600;53.326;-6.298;2023-06-14T07:26:05;101453.03;;;23.31;41.29
24422;BME280;12600;53.326;-6.298;2023-06-14T07:28:54;101456.25;;;23.33;39.37
24422;BME280;12600;53.326;-6.298;2023-06-14T07:31:43;101463.50;;;23.37;38.37
24422;BME280;12600;53.326;-6.298;2023-06-14T07:34:33;101468.41;;;23.48;37.95
24422;BME280;12600;53.326;-6.298;2023-06-14T07:37:22;101460.16;;;23.55;37.18
24422;BME280;12600;53.326;-6.298;2023-06-14T07:40:13;101466.28;;;23.64;36.83
24422;BME280;12600;53.326;-6.298;2023-06-14T07:43:03;101475.94;;;23.73;36.82
24422;BME280;12600;53.326;-6.298;2023-06-14T07:45:52;101457.69;;;23.80;36.14
24422;BME280;12600;53.326;-6.298;2023-06-14T07:48:54;101474.63;;;23.94;35.57
24422;BME280;12600;53.326;-6.298;2023-06-14T07:51:44;101474.88;;;24.15;35.80
24422;BME280;12600;53.326;-6.298;2023-06-14T07:54:34;101474.31;;;24.36;35.23
24422;BME280;12600;53.326;-6.298;2023-06-14T07:57:25;101475.81;;;24.64;35.50
24422;BME280;12600;53.326;-6.298;2023-06-14T08:00:16;101475.63;;;24.94;35.65
24422;BME280;12600;53.326;-6.298;2023-06-14T08:03:06;101486.69;;;25.24;35.50
24422;BME280;12600;53.326;-6.298;2023-06-14T08:05:55;101492.88;;;25.58;35.93
24422;BME280;12600;53.326;-6.298;2023-06-14T08:08:45;101486.28;;;25.91;35.94
24422;BME280;12600;53.326;-6.298;2023-06-14T08:11:34;101494.38;;;26.25;35.29
24422;BME280;12600;53.326;-6.298;2023-06-14T08:14:26;101497.69;;;26.55;34.14
24422;BME280;12600;53.326;-6.298;2023-06-14T08:17:16;101490.88;;;26.77;33.72
24422;BME280;12600;53.326;-6.298;2023-06-14T08:20:07;101495.69;;;26.98;33.09
24422;BME280;12600;53.326;-6.298;2023-06-14T08:22:57;101504.94;;;27.06;32.02
24422;BME280;12600;53.326;-6.298;2023-06-14T08:25:47;101505.72;;;27.17;31.66
24422;BME280;12600;53.326;-6.298;2023-06-14T08:28:36;101518.56;;;27.29;31.82
24422;BME280;12600;53.326;-6.298;2023-06-14T08:31:27;101511.72;;;27.44;31.62
24422;BME280;12600;53.326;-6.298;2023-06-14T08:34:16;101513.25;;;27.63;31.24
24422;BME280;12600;53.326;-6.298;2023-06-14T08:37:06;101511.25;;;27.71;30.93
24422;BME280;12600;53.326;-6.298;2023-06-14T08:39:55;101506.38;;;27.89;30.93
24422;BME280;12600;53.326;-6.298;2023-06-14T08:42:47;101518.69;;;28.13;30.65
24422;BME280;12600;53.326;-6.298;2023-06-14T08:45:37;101510.63;;;28.22;29.51
24422;BME280;12600;53.326;-6.298;2023-06-14T08:48:29;101515.03;;;28.30;29.08
24422;BME280;12600;53.326;-6.298;2023-06-14T08:51:20;101509.00;;;28.28;28.71
24422;BME280;12600;53.326;-6.298;2023-06-14T08:54:12;101520.66;;;28.30;28.21
24422;BME280;12600;53.326;-6.298;2023-06-14T08:57:03;101518.59;;;28.41;27.56
24422;BME280;12600;53.326;-6.298;2023-06-14T08:59:54;101518.13;;;28.50;26.90
24422;BME280;12600;53.326;-6.298;2023-06-14T09:02:44;101524.84;;;28.67;27.19
24422;BME280;12600;53.326;-6.298;2023-06-14T09:05:35;101530.41;;;28.74;26.14
24422;BME280;12600;53.326;-6.298;2023-06-14T09:08:25;101534.41;;;28.77;26.17
24422;BME280;12600;53.326;-6.298;2023-06-14T09:11:19;101529.03;;;29.00;26.04
24422;BME280;12600;53.326;-6.298;2023-06-14T09:14:09;101529.66;;;29.22;25.84
24422;BME280;12600;53.326;-6.298;2023-06-14T09:16:58;101538.34;;;29.35;25.27
24422;BME280;12600;53.326;-6.298;2023-06-14T09:19:54;101533.94;;;29.37;24.50
24422;BME280;12600;53.326;-6.298;2023-06-14T09:22:48;101534.91;;;29.20;23.59
24422;BME280;12600;53.326;-6.298;2023-06-14T09:25:46;101538.63;;;29.06;23.25
24422;BME280;12600;53.326;-6.298;2023-06-14T09:28:41;101533.53;;;28.90;23.69
24422;BME280;12600;53.326;-6.298;2023-06-14T09:31:35;101539.16;;;28.90;24.10
24422;BME280;12600;53.326;-6.298;2023-06-14T09:34:25;101542.72;;;28.98;24.24
24422;BME280;12600;53.326;-6.298;2023-06-14T09:37:27;101537.16;;;28.91;24.13
24422;BME280;12600;53.326;-6.298;2023-06-14T09:40:22;101547.94;;;29.00;24.00
24422;BME280;12600;53.326;-6.298;2023-06-14T09:43:13;101549.47;;;29.08;24.83
24422;BME280;12600;53.326;-6.298;2023-06-14T09:46:09;101552.97;;;29.19;24.85
24422;BME280;12600;53.326;-6.298;2023-06-14T09:49:03;101541.75;;;29.15;25.02
24422;BME280;12600;53.326;-6.298;2023-06-14T09:51:57;101547.50;;;29.05;25.82
24422;BME280;12600;53.326;-6.298;2023-06-14T09:54:48;101546.22;;;29.09;26.15
24422;BME280;12600;53.326;-6.298;2023-06-14T09:57:43;101545.81;;;29.11;27.15
24422;BME280;12600;53.326;-6.298;2023-06-14T10:00:37;101541.88;;;29.05;27.29
24422;BME280;12600;53.326;-6.298;2023-06-14T10:03:37;101548.19;;;29.16;27.35
24422;BME280;12600;53.326;-6.298;2023-06-14T10:06:47;101553.13;;;29.05;27.55
24422;BME280;12600;53.326;-6.298;2023-06-14T10:09:39;101539.88;;;29.02;28.61
24422;BME280;12600;53.326;-6.298;2023-06-14T10:12:32;101541.88;;;29.05;28.44
24422;BME280;12600;53.326;-6.298;2023-06-14T10:15:29;101549.78;;;29.20;28.77
24422;BME280;12600;53.326;-6.298;2023-06-14T10:18:31;101547.22;;;29.33;29.12
24422;BME280;12600;53.326;-6.298;2023-06-14T10:21:28;101557.47;;;29.58;28.82
24422;BME280;12600;53.326;-6.298;2023-06-14T10:24:30;101559.84;;;29.59;28.56
24422;BME280;12600;53.326;-6.298;2023-06-14T10:27:22;101565.59;;;29.48;28.75
24422;BME280;12600;53.326;-6.298;2023-06-14T10:30:15;101560.75;;;29.49;29.00
24422;BME280;12600;53.326;-6.298;2023-06-14T10:33:09;101562.09;;;29.37;28.70
24422;BME280;12600;53.326;-6.298;2023-06-14T10:36:26;101563.66;;;28.86;29.69
24422;BME280;12600;53.326;-6.298;2023-06-14T10:39:19;101562.88;;;28.86;30.01
24422;BME280;12600;53.326;-6.298;2023-06-14T10:42:11;101560.50;;;28.81;29.58
24422;BME280;12600;53.326;-6.298;2023-06-14T10:45:01;101559.00;;;28.65;29.84
24422;BME280;12600;53.326;-6.298;2023-06-14T10:47:52;101559.75;;;28.73;30.34
24422;BME280;12600;53.326;-6.298;2023-06-14T10:50:43;101559.84;;;28.59;29.95
24422;BME280;12600;53.326;-6.298;2023-06-14T10:53:40;101567.97;;;28.42;30.01
24422;BME280;12600;53.326;-6.298;2023-06-14T10:56:30;101567.19;;;28.38;29.95
24422;BME280;12600;53.326;-6.298;2023-06-14T10:59:20;101554.38;;;28.30;30.03
24422;BME280;12600;53.326;-6.298;2023-06-14T11:02:49;101554.28;;;28.48;30.00
24422;BME280;12600;53.326;-6.298;2023-06-14T11:05:50;101558.63;;;28.60;29.94
24422;BME280;12600;53.326;-6.298;2023-06-14T11:12:49;101548.19;;;28.64;29.23
24422;BME280;12600;53.326;-6.298;2023-06-14T11:15:45;101541.16;;;28.24;29.67
24422;BME280;12600;53.326;-6.298;2023-06-14T11:18:37;101551.97;;;28.22;30.25
24422;BME280;12600;53.326;-6.298;2023-06-14T11:21:27;101547.94;;;28.26;30.27
24422;BME280;12600;53.326;-6.298;2023-06-14T11:24:20;101549.06;;;28.47;30.00
24422;BME280;12600;53.326;-6.298;2023-06-14T11:27:09;101546.84;;;28.79;30.02
24422;BME280;12600;53.326;-6.298;2023-06-14T11:29:59;101542.72;;;28.98;30.24
24422;BME280;12600;53.326;-6.298;2023-06-14T11:32:53;101543.09;;;29.04;30.28
24422;BME280;12600;53.326;-6.298;2023-06-14T11:35:46;101542.25;;;29.03;29.83
24422;BME280;12600;53.326;-6.298;2023-06-14T11:38:39;101543.59;;;28.84;29.09
24422;BME280;12600;53.326;-6.298;2023-06-14T11:41:38;101547.44;;;28.53;30.18
24422;BME280;12600;53.326;-6.298;2023-06-14T11:44:28;101538.19;;;28.52;30.63
24422;BME280;12600;53.326;-6.298;2023-06-14T11:47:18;101539.53;;;28.30;30.46
24422;BME280;12600;53.326;-6.298;2023-06-14T11:50:09;101542.84;;;28.03;30.47
24422;BME280;12600;53.326;-6.298;2023-06-14T11:53:00;101525.59;;;28.01;30.95
24422;BME280;12600;53.326;-6.298;2023-06-14T11:55:56;101534.25;;;28.42;30.60
24422;BME280;12600;53.326;-6.298;2023-06-14T11:58:46;101527.84;;;28.35;30.81
24422;BME280;12600;53.326;-6.298;2023-06-14T12:01:36;101513.88;;;28.13;31.17
24422;BME280;12600;53.326;-6.298;2023-06-14T12:04:27;101527.13;;;28.17;31.01
24422;BME280;12600;53.326;-6.298;2023-06-14T12:07:19;101528.63;;;28.39;31.74
24422;BME280;12600;53.326;-6.298;2023-06-14T12:10:11;101535.84;;;28.43;32.17
24422;BME280;12600;53.326;-6.298;2023-06-14T12:13:02;101529.44;;;28.39;31.29
24422;BME280;12600;53.326;-6.298;2023-06-14T12:15:55;101530.22;;;28.43;31.49
24422;BME280;12600;53.326;-6.298;2023-06-14T12:18:45;101518.50;;;28.52;31.84
24422;BME280;12600;53.326;-6.298;2023-06-14T12:21:34;101527.69;;;28.60;32.21
24422;BME280;12600;53.326;-6.298;2023-06-14T12:24:28;101533.91;;;28.92;31.94
24422;BME280;12600;53.326;-6.298;2023-06-14T12:27:22;101516.31;;;29.26;31.53
24422;BME280;12600;53.326;-6.298;2023-06-14T12:30:18;101530.63;;;29.84;31.12
24422;BME280;12600;53.326;-6.298;2023-06-14T12:33:07;101526.97;;;30.21;31.05
24422;BME280;12600;53.326;-6.298;2023-06-14T12:35:57;101529.66;;;30.58;30.68
24422;BME280;12600;53.326;-6.298;2023-06-14T12:38:47;101529.47;;;30.73;29.97
24422;BME280;12600;53.326;-6.298;2023-06-14T12:41:36;101531.59;;;30.61;29.27
24422;BME280;12600;53.326;-6.298;2023-06-14T12:44:26;101523.34;;;30.47;29.30
24422;BME280;12600;53.326;-6.298;2023-06-14T12:47:16;101520.16;;;30.18;29.34
24422;BME280;12600;53.326;-6.298;2023-06-14T12:50:07;101532.47;;;29.97;29.22
24422;BME280;12600;53.326;-6.298;2023-06-14T12:52:57;101525.38;;;29.86;29.05
24422;BME280;12600;53.326;-6.298;2023-06-14T12:55:46;101537.91;;;29.81;29.30
24422;BME280;12600;53.326;-6.298;2023-06-14T12:58:35;101532.03;;;29.99;29.30
24422;BME280;12600;53.326;-6.298;2023-06-14T13:01:25;101534.28;;;30.15;28.87
24422;BME280;12600;53.326;-6.298;2023-06-14T13:04:16;101536.13;;;30.28;28.96
24422;BME280;12600;53.326;-6.298;2023-06-14T13:07:05;101531.72;;;30.27;29.28
24422;BME280;12600;53.326;-6.298;2023-06-14T13:09:55;101534.69;;;30.17;29.20
24422;BME280;12600;53.326;-6.298;2023-06-14T13:12:44;101527.75;;;29.87;29.59
24422;BME280;12600;53.326;-6.298;2023-06-14T13:15:34;101531.22;;;29.68;29.99
24422;BME280;12600;53.326;-6.298;2023-06-14T13:18:23;101542.16;;;29.59;30.54
24422;BME280;12600;53.326;-6.298;2023-06-14T13:21:14;101533.94;;;29.75;30.41
24422;BME280;12600;53.326;-6.298;2023-06-14T13:24:05;101536.97;;;29.91;29.99
24422;BME280;12600;53.326;-6.298;2023-06-14T13:26:54;101544.81;;;30.07;29.76
24422;BME280;12600;53.326;-6.298;2023-06-14T13:29:43;101536.69;;;30.16;29.68
24422;BME280;12600;53.326;-6.298;2023-06-14T13:32:33;101534.00;;;30.36;28.88
24422;BME280;12600;53.326;-6.298;2023-06-14T13:35:23;101534.78;;;30.36;29.24
24422;BME280;12600;53.326;-6.298;2023-06-14T13:38:13;101531.19;;;30.63;29.55
24422;BME280;12600;53.326;-6.298;2023-06-14T13:41:03;101543.06;;;30.78;29.52
24422;BME280;12600;53.326;-6.298;2023-06-14T13:43:53;101535.09;;;30.73;28.98
24422;BME280;12600;53.326;-6.298;2023-06-14T13:46:42;101533.25;;;30.86;29.12
24422;BME280;12600;53.326;-6.298;2023-06-14T13:49:32;101537.94;;;30.73;28.66
24422;BME280;12600;53.326;-6.298;2023-06-14T13:52:23;101537.38;;;30.81;28.87
24422;BME280;12600;53.326;-6.298;2023-06-14T13:55:13;101540.00;;;30.69;27.54
24422;BME280;12600;53.326;-6.298;2023-06-14T13:58:03;101535.72;;;30.57;27.87
24422;BME280;12600;53.326;-6.298;2023-06-14T14:00:52;101529.94;;;30.68;28.63
24422;BME280;12600;53.326;-6.298;2023-06-14T14:03:42;101528.06;;;30.84;28.51
24422;BME280;12600;53.326;-6.298;2023-06-14T14:06:33;101521.25;;;30.82;28.23
24422;BME280;12600;53.326;-6.298;2023-06-14T14:09:23;101520.47;;;30.81;27.31
24422;BME280;12600;53.326;-6.298;2023-06-14T14:12:14;101518.03;;;30.80;27.46
24422;BME280;12600;53.326;-6.298;2023-06-14T14:15:05;101525.03;;;30.95;27.47
24422;BME280;12600;53.326;-6.298;2023-06-14T14:17:56;101520.50;;;31.01;27.41
24422;BME280;12600;53.326;-6.298;2023-06-14T14:20:46;101521.88;;;31.16;28.02
24422;BME280;12600;53.326;-6.298;2023-06-14T14:23:35;101528.31;;;31.17;27.89
24422;BME280;12600;53.326;-6.298;2023-06-14T14:26:28;101524.13;;;31.02;28.11
24422;BME280;12600;53.326;-6.298;2023-06-14T14:29:19;101528.16;;;30.77;27.79
24422;BME280;12600;53.326;-6.298;2023-06-14T14:32:11;101519.44;;;30.68;27.99
24422;BME280;12600;53.326;-6.298;2023-06-14T14:35:02;101510.25;;;30.60;28.05
24422;BME280;12600;53.326;-6.298;2023-06-14T14:37:51;101513.00;;;30.41;28.08
24422;BME280;12600;53.326;-6.298;2023-06-14T14:40:42;101503.03;;;30.32;28.49
24422;BME280;12600;53.326;-6.298;2023-06-14T14:43:31;101503.84;;;30.33;28.48
24422;BME280;12600;53.326;-6.298;2023-06-14T14:46:22;101504.56;;;30.10;28.92
24422;BME280;12600;53.326;-6.298;2023-06-14T14:49:11;101506.84;;;30.19;29.24